sensor_id;sensor_type;location;lat;lon;timestamp;temperature;humidity
9975;DHT22;5028;50.974;4.968;2022-10-18T00:01:50;15.70;99.90
9975;DHT22;5028;50.974;4.968;2022-10-18T00:04:19;15.70;99.90
9975;DHT22;5028;50.974;4.968;2022-10-18T00:06:54;15.70;99.90
9975;DHT22;5028;50.974;4.968;2022-10-18T00:09:24;15.70;99.90
9975;DHT22;5028;50.974;4.968;2022-10-18T00:11:59;15.70;99.90
9975;DHT22;5028;50.974;4.968;2022-10-18T00:14:28;15.70;99.90
9975;DHT22;5028;50.974;4.968;2022-10-18T00:17:03;15.70;99.90
9975;DHT22;5028;50.974;4.968;2022-10-18T00:19:32;15.70;99.90
9975;DHT22;5028;50.974;4.968;2022-10-18T00:22:07;15.70;99.90
9975;DHT22;5028;50.974;4.968;2022-10-18T00:24:37;15.70;99.90
9975;DHT22;5028;50.974;4.968;2022-10-18T00:27:12;15.70;99.90
9975;DHT22;5028;50.974;4.968;2022-10-18T00:29:41;15.60;99.90
9975;DHT22;5028;50.974;4.968;2022-10-18T00:32:15;15.60;99.90
9975;DHT22;5028;50.974;4.968;2022-10-18T00:34:44;15.60;99.90
9975;DHT22;5028;50.974;4.968;2022-10-18T00:37:18;15.70;99.90
9975;DHT22;5028;50.974;4.968;2022-10-18T00:39:48;15.70;99.90
9975;DHT22;5028;50.974;4.968;2022-10-18T00:42:28;15.70;99.90
9975;DHT22;5028;50.974;4.968;2022-10-18T00:45:14;15.70;99.90
9975;DHT22;5028;50.974;4.968;2022-10-18T00:47:52;15.70;99.90
9975;DHT22;5028;50.974;4.968;2022-10-18T00:50:31;15.70;99.90
9975;DHT22;5028;50.974;4.968;2022-10-18T00:53:10;15.70;99.90
9975;DHT22;5028;50.974;4.968;2022-10-18T00:55:48;15.70;99.90
9975;DHT22;5028;50.974;4.968;2022-10-18T00:58:17;15.60;99.90
9975;DHT22;5028;50.974;4.968;2022-10-18T01:00:53;15.70;99.90
9975;DHT22;5028;50.974;4.968;2022-10-18T01:03:22;15.60;99.90
9975;DHT22;5028;50.974;4.968;2022-10-18T01:05:57;15.60;99.90
9975;DHT22;5028;50.974;4.968;2022-10-18T01:08:44;15.60;99.90
9975;DHT22;5028;50.974;4.968;2022-10-18T01:14:29;15.60;99.90
9975;DHT22;5028;50.974;4.968;2022-10-18T01:17:12;15.60;99.90
9975;DHT22;5028;50.974;4.968;2022-10-18T01:20:16;15.60;99.90
9975;DHT22;5028;50.974;4.968;2022-10-18T01:22:55;15.60;99.90
9975;DHT22;5028;50.974;4.968;2022-10-18T01:25:38;15.60;99.90
9975;DHT22;5028;50.974;4.968;2022-10-18T01:28:28;15.60;99.90
9975;DHT22;5028;50.974;4.968;2022-10-18T01:31:01;15.60;99.90
9975;DHT22;5028;50.974;4.968;2022-10-18T01:33:40;15.60;99.90
9975;DHT22;5028;50.974;4.968;2022-10-18T01:36:14;15.60;99.90
9975;DHT22;5028;50.974;4.968;2022-10-18T01:38:53;15.60;99.90
9975;DHT22;5028;50.974;4.968;2022-10-18T01:41:24;15.60;99.90
9975;DHT22;5028;50.974;4.968;2022-10-18T01:44:02;15.50;99.90
9975;DHT22;5028;50.974;4.968;2022-10-18T01:46:40;15.50;99.90
9975;DHT22;5028;50.974;4.968;2022-10-18T01:49:16;15.60;99.90
9975;DHT22;5028;50.974;4.968;2022-10-18T01:51:45;15.50;99.90
9975;DHT22;5028;50.974;4.968;2022-10-18T01:54:26;15.60;99.90
9975;DHT22;5028;50.974;4.968;2022-10-18T01:57:00;15.60;99.90
9975;DHT22;5028;50.974;4.968;2022-10-18T01:59:45;15.60;99.90
9975;DHT22;5028;50.974;4.968;2022-10-18T02:02:35;15.60;99.90
9975;DHT22;5028;50.974;4.968;2022-10-18T02:05:20;15.60;99.90
9975;DHT22;5028;50.974;4.968;2022-10-18T02:07:56;15.50;99.90
9975;DHT22;5028;50.974;4.968;2022-10-18T02:10:51;15.50;99.90
9975;DHT22;5028;50.974;4.968;2022-10-18T02:13:23;15.50;99.90
9975;DHT22;5028;50.974;4.968;2022-10-18T02:16:02;15.50;99.90
9975;DHT22;5028;50.974;4.968;2022-10-18T02:18:36;15.50;99.90
9975;DHT22;5028;50.974;4.968;2022-10-18T02:21:17;15.50;99.90
9975;DHT22;5028;50.974;4.968;2022-10-18T02:23:46;15.50;99.90
9975;DHT22;5028;50.974;4.968;2022-10-18T02:26:21;15.50;99.90
9975;DHT22;5028;50.974;4.968;2022-10-18T02:28:50;15.60;99.90
9975;DHT22;5028;50.974;4.968;2022-10-18T02:31:29;15.60;99.90
9975;DHT22;5028;50.974;4.968;2022-10-18T02:34:02;15.60;99.90
9975;DHT22;5028;50.974;4.968;2022-10-18T02:36:41;15.60;99.90
9975;DHT22;5028;50.974;4.968;2022-10-18T02:39:13;15.60;99.90
9975;DHT22;5028;50.974;4.968;2022-10-18T02:41:48;15.70;99.90
9975;DHT22;5028;50.974;4.968;2022-10-18T02:44:17;15.60;99.90
9975;DHT22;5028;50.974;4.968;2022-10-18T02:46:52;15.60;99.90
9975;DHT22;5028;50.974;4.968;2022-10-18T02:49:29;15.70;99.90
9975;DHT22;5028;50.974;4.968;2022-10-18T02:52:04;15.60;99.90
9975;DHT22;5028;50.974;4.968;2022-10-18T02:54:33;15.70;99.90
9975;DHT22;5028;50.974;4.968;2022-10-18T02:57:07;15.60;99.90
9975;DHT22;5028;50.974;4.968;2022-10-18T02:59:36;15.60;99.90
9975;DHT22;5028;50.974;4.968;2022-10-18T03:02:10;15.60;99.90
9975;DHT22;5028;50.974;4.968;2022-10-18T03:04:40;15.60;99.90
9975;DHT22;5028;50.974;4.968;2022-10-18T03:07:14;15.60;99.90
9975;DHT22;5028;50.974;4.968;2022-10-18T03:09:43;15.60;99.90
9975;DHT22;5028;50.974;4.968;2022-10-18T03:12:17;15.60;99.90
9975;DHT22;5028;50.974;4.968;2022-10-18T03:14:46;15.60;99.90
9975;DHT22;5028;50.974;4.968;2022-10-18T03:17:21;15.60;99.90
9975;DHT22;5028;50.974;4.968;2022-10-18T03:19:51;15.50;99.90
9975;DHT22;5028;50.974;4.968;2022-10-18T03:22:26;15.50;99.90
9975;DHT22;5028;50.974;4.968;2022-10-18T03:25:00;15.40;99.90
9975;DHT22;5028;50.974;4.968;2022-10-18T03:27:35;15.40;99.90
9975;DHT22;5028;50.974;4.968;2022-10-18T03:30:04;15.40;99.90
9975;DHT22;5028;50.974;4.968;2022-10-18T03:32:40;15.40;99.90
9975;DHT22;5028;50.974;4.968;2022-10-18T03:35:10;15.30;99.90
9975;DHT22;5028;50.974;4.968;2022-10-18T03:37:45;15.40;99.90
9975;DHT22;5028;50.974;4.968;2022-10-18T03:40:14;15.40;99.90
9975;DHT22;5028;50.974;4.968;2022-10-18T03:42:49;15.40;99.90
9975;DHT22;5028;50.974;4.968;2022-10-18T03:45:18;15.40;99.90
9975;DHT22;5028;50.974;4.968;2022-10-18T03:48:04;15.40;99.90
9975;DHT22;5028;50.974;4.968;2022-10-18T03:50:34;15.40;99.90
9975;DHT22;5028;50.974;4.968;2022-10-18T03:53:09;15.40;99.90
9975;DHT22;5028;50.974;4.968;2022-10-18T03:55:37;15.40;99.90
9975;DHT22;5028;50.974;4.968;2022-10-18T03:58:12;15.40;99.90
9975;DHT22;5028;50.974;4.968;2022-10-18T04:00:41;15.50;99.90
9975;DHT22;5028;50.974;4.968;2022-10-18T04:03:16;15.40;99.90
9975;DHT22;5028;50.974;4.968;2022-10-18T04:05:47;15.50;99.90
9975;DHT22;5028;50.974;4.968;2022-10-18T04:08:21;15.50;99.90
9975;DHT22;5028;50.974;4.968;2022-10-18T04:10:50;15.50;99.90
9975;DHT22;5028;50.974;4.968;2022-10-18T04:13:25;15.50;99.90
9975;DHT22;5028;50.974;4.968;2022-10-18T04:15:54;15.50;99.90
9975;DHT22;5028;50.974;4.968;2022-10-18T04:18:29;15.40;99.90
9975;DHT22;5028;50.974;4.968;2022-10-18T04:20:59;15.40;99.90
9975;DHT22;5028;50.974;4.968;2022-10-18T04:23:34;15.40;99.90
9975;DHT22;5028;50.974;4.968;2022-10-18T04:26:05;15.50;99.90
9975;DHT22;5028;50.974;4.968;2022-10-18T04:28:39;15.40;99.90
9975;DHT22;5028;50.974;4.968;2022-10-18T04:31:08;15.40;99.90
9975;DHT22;5028;50.974;4.968;2022-10-18T04:33:43;15.40;99.90
9975;DHT22;5028;50.974;4.968;2022-10-18T04:36:13;15.50;99.90
9975;DHT22;5028;50.974;4.968;2022-10-18T04:38:48;15.50;99.90
9975;DHT22;5028;50.974;4.968;2022-10-18T04:41:17;15.40;99.90
9975;DHT22;5028;50.974;4.968;2022-10-18T04:43:51;15.40;99.90
9975;DHT22;5028;50.974;4.968;2022-10-18T04:46:20;15.40;99.90
9975;DHT22;5028;50.974;4.968;2022-10-18T04:48:55;15.40;99.90
9975;DHT22;5028;50.974;4.968;2022-10-18T04:51:25;15.30;99.90
9975;DHT22;5028;50.974;4.968;2022-10-18T04:54:00;15.30;99.90
9975;DHT22;5028;50.974;4.968;2022-10-18T04:56:28;15.30;99.90
9975;DHT22;5028;50.974;4.968;2022-10-18T04:59:03;15.30;99.90
9975;DHT22;5028;50.974;4.968;2022-10-18T05:01:32;15.30;99.90
9975;DHT22;5028;50.974;4.968;2022-10-18T05:04:07;15.30;99.90
9975;DHT22;5028;50.974;4.968;2022-10-18T05:06:37;15.30;99.90
9975;DHT22;5028;50.974;4.968;2022-10-18T05:09:13;15.30;99.90
9975;DHT22;5028;50.974;4.968;2022-10-18T05:11:41;15.30;99.90
9975;DHT22;5028;50.974;4.968;2022-10-18T05:14:17;15.30;99.90
9975;DHT22;5028;50.974;4.968;2022-10-18T05:16:52;15.30;99.90
9975;DHT22;5028;50.974;4.968;2022-10-18T05:19:20;15.20;99.90
9975;DHT22;5028;50.974;4.968;2022-10-18T05:21:57;15.20;99.90
9975;DHT22;5028;50.974;4.968;2022-10-18T05:24:25;15.20;99.90
9975;DHT22;5028;50.974;4.968;2022-10-18T05:27:01;15.20;99.90
9975;DHT22;5028;50.974;4.968;2022-10-18T05:29:29;15.20;99.90
9975;DHT22;5028;50.974;4.968;2022-10-18T05:32:05;15.20;99.90
9975;DHT22;5028;50.974;4.968;2022-10-18T05:34:33;15.20;99.90
9975;DHT22;5028;50.974;4.968;2022-10-18T05:37:10;15.10;99.90
9975;DHT22;5028;50.974;4.968;2022-10-18T05:39:39;15.10;99.90
9975;DHT22;5028;50.974;4.968;2022-10-18T05:42:14;15.20;99.90
9975;DHT22;5028;50.974;4.968;2022-10-18T05:44:42;15.20;99.90
9975;DHT22;5028;50.974;4.968;2022-10-18T05:47:18;15.20;99.90
9975;DHT22;5028;50.974;4.968;2022-10-18T05:49:53;15.20;99.90
9975;DHT22;5028;50.974;4.968;2022-10-18T05:52:30;15.20;99.90
9975;DHT22;5028;50.974;4.968;2022-10-18T05:54:59;15.10;99.90
9975;DHT22;5028;50.974;4.968;2022-10-18T05:57:34;15.10;99.90
9975;DHT22;5028;50.974;4.968;2022-10-18T06:00:03;15.10;99.90
9975;DHT22;5028;50.974;4.968;2022-10-18T06:02:39;15.10;99.90
9975;DHT22;5028;50.974;4.968;2022-10-18T06:05:07;15.10;99.90
9975;DHT22;5028;50.974;4.968;2022-10-18T06:07:44;15.10;99.90
9975;DHT22;5028;50.974;4.968;2022-10-18T06:10:12;15.00;99.90
9975;DHT22;5028;50.974;4.968;2022-10-18T06:12:48;15.00;99.90
9975;DHT22;5028;50.974;4.968;2022-10-18T06:15:16;15.00;99.90
9975;DHT22;5028;50.974;4.968;2022-10-18T06:17:51;14.90;99.90
9975;DHT22;5028;50.974;4.968;2022-10-18T06:20:20;14.90;99.90
9975;DHT22;5028;50.974;4.968;2022-10-18T06:22:56;14.80;99.90
9975;DHT22;5028;50.974;4.968;2022-10-18T06:25:25;14.80;99.90
9975;DHT22;5028;50.974;4.968;2022-10-18T06:28:00;14.70;99.90
9975;DHT22;5028;50.974;4.968;2022-10-18T06:30:28;14.70;99.90
9975;DHT22;5028;50.974;4.968;2022-10-18T06:33:03;14.70;99.90
9975;DHT22;5028;50.974;4.968;2022-10-18T06:35:31;14.70;99.90
9975;DHT22;5028;50.974;4.968;2022-10-18T06:38:08;14.60;99.90
9975;DHT22;5028;50.974;4.968;2022-10-18T06:40:37;14.70;99.90
9975;DHT22;5028;50.974;4.968;2022-10-18T06:43:12;14.70;99.90
9975;DHT22;5028;50.974;4.968;2022-10-18T06:45:54;14.70;99.90
9975;DHT22;5028;50.974;4.968;2022-10-18T06:48:29;14.80;99.90
9975;DHT22;5028;50.974;4.968;2022-10-18T06:51:06;14.80;99.90
9975;DHT22;5028;50.974;4.968;2022-10-18T06:53:43;14.80;99.90
9975;DHT22;5028;50.974;4.968;2022-10-18T06:56:32;14.80;99.90
9975;DHT22;5028;50.974;4.968;2022-10-18T06:59:08;14.80;99.90
9975;DHT22;5028;50.974;4.968;2022-10-18T07:01:36;14.80;99.90
9975;DHT22;5028;50.974;4.968;2022-10-18T07:04:11;14.90;99.90
9975;DHT22;5028;50.974;4.968;2022-10-18T07:06:39;14.90;99.90
9975;DHT22;5028;50.974;4.968;2022-10-18T07:09:16;14.90;99.90
9975;DHT22;5028;50.974;4.968;2022-10-18T07:11:45;14.90;99.90
9975;DHT22;5028;50.974;4.968;2022-10-18T07:14:20;15.00;99.90
9975;DHT22;5028;50.974;4.968;2022-10-18T07:16:54;15.00;99.90
9975;DHT22;5028;50.974;4.968;2022-10-18T07:19:31;15.00;99.90
9975;DHT22;5028;50.974;4.968;2022-10-18T07:22:00;15.00;99.90
9975;DHT22;5028;50.974;4.968;2022-10-18T07:24:36;15.00;99.90
9975;DHT22;5028;50.974;4.968;2022-10-18T07:27:05;15.00;99.90
9975;DHT22;5028;50.974;4.968;2022-10-18T07:29:39;15.00;99.90
9975;DHT22;5028;50.974;4.968;2022-10-18T07:32:08;15.10;99.90
9975;DHT22;5028;50.974;4.968;2022-10-18T07:34:44;15.00;99.90
9975;DHT22;5028;50.974;4.968;2022-10-18T07:37:12;15.00;99.90
9975;DHT22;5028;50.974;4.968;2022-10-18T07:39:50;15.00;99.90
9975;DHT22;5028;50.974;4.968;2022-10-18T07:42:19;15.20;99.90
9975;DHT22;5028;50.974;4.968;2022-10-18T07:45:00;15.10;99.90
9975;DHT22;5028;50.974;4.968;2022-10-18T07:47:43;15.00;99.90
9975;DHT22;5028;50.974;4.968;2022-10-18T07:50:18;15.10;99.90
9975;DHT22;5028;50.974;4.968;2022-10-18T07:52:46;15.10;99.90
9975;DHT22;5028;50.974;4.968;2022-10-18T07:55:22;15.10;99.90
9975;DHT22;5028;50.974;4.968;2022-10-18T07:57:51;15.10;99.90
9975;DHT22;5028;50.974;4.968;2022-10-18T08:00:26;15.10;99.90
9975;DHT22;5028;50.974;4.968;2022-10-18T08:02:55;15.20;99.90
9975;DHT22;5028;50.974;4.968;2022-10-18T08:05:30;15.20;99.90
9975;DHT22;5028;50.974;4.968;2022-10-18T08:08:03;15.20;99.90
9975;DHT22;5028;50.974;4.968;2022-10-18T08:10:40;15.20;99.90
9975;DHT22;5028;50.974;4.968;2022-10-18T08:13:15;15.20;99.90
9975;DHT22;5028;50.974;4.968;2022-10-18T08:15:44;15.20;99.90
9975;DHT22;5028;50.974;4.968;2022-10-18T08:18:19;15.20;99.90
9975;DHT22;5028;50.974;4.968;2022-10-18T08:20:47;15.20;99.90
9975;DHT22;5028;50.974;4.968;2022-10-18T08:23:22;15.20;99.90
9975;DHT22;5028;50.974;4.968;2022-10-18T08:25:52;15.20;99.90
9975;DHT22;5028;50.974;4.968;2022-10-18T08:28:27;15.20;99.90
9975;DHT22;5028;50.974;4.968;2022-10-18T08:30:55;15.20;99.90
9975;DHT22;5028;50.974;4.968;2022-10-18T08:33:31;15.20;99.90
9975;DHT22;5028;50.974;4.968;2022-10-18T08:36:00;15.20;99.90
9975;DHT22;5028;50.974;4.968;2022-10-18T08:38:39;15.20;99.90
9975;DHT22;5028;50.974;4.968;2022-10-18T08:41:27;15.20;99.90
9975;DHT22;5028;50.974;4.968;2022-10-18T08:44:06;15.30;99.90
9975;DHT22;5028;50.974;4.968;2022-10-18T08:46:45;15.30;99.90
9975;DHT22;5028;50.974;4.968;2022-10-18T08:49:24;15.40;99.90
9975;DHT22;5028;50.974;4.968;2022-10-18T08:51:55;15.40;99.90
9975;DHT22;5028;50.974;4.968;2022-10-18T08:54:35;15.40;99.90
9975;DHT22;5028;50.974;4.968;2022-10-18T08:57:12;15.40;99.90
9975;DHT22;5028;50.974;4.968;2022-10-18T08:59:48;15.40;99.90
9975;DHT22;5028;50.974;4.968;2022-10-18T09:02:32;15.40;99.90
9975;DHT22;5028;50.974;4.968;2022-10-18T09:05:20;15.40;99.90
9975;DHT22;5028;50.974;4.968;2022-10-18T09:08:06;15.50;99.90
9975;DHT22;5028;50.974;4.968;2022-10-18T09:10:51;15.50;99.90
9975;DHT22;5028;50.974;4.968;2022-10-18T09:13:57;15.40;99.90
9975;DHT22;5028;50.974;4.968;2022-10-18T09:16:41;15.40;99.90
9975;DHT22;5028;50.974;4.968;2022-10-18T09:19:20;15.40;99.90
9975;DHT22;5028;50.974;4.968;2022-10-18T09:22:07;15.40;99.90
9975;DHT22;5028;50.974;4.968;2022-10-18T09:24:39;15.50;99.90
9975;DHT22;5028;50.974;4.968;2022-10-18T09:27:16;15.50;99.90
9975;DHT22;5028;50.974;4.968;2022-10-18T09:29:57;15.60;99.90
9975;DHT22;5028;50.974;4.968;2022-10-18T09:32:43;15.70;99.90
9975;DHT22;5028;50.974;4.968;2022-10-18T09:35:18;15.80;99.90
9975;DHT22;5028;50.974;4.968;2022-10-18T09:38:02;15.90;99.90
9975;DHT22;5028;50.974;4.968;2022-10-18T09:40:35;15.90;99.90
9975;DHT22;5028;50.974;4.968;2022-10-18T09:43:17;16.00;99.90
9975;DHT22;5028;50.974;4.968;2022-10-18T09:45:52;16.10;99.90
9975;DHT22;5028;50.974;4.968;2022-10-18T09:48:44;16.30;99.90
9975;DHT22;5028;50.974;4.968;2022-10-18T09:51:14;16.50;99.90
9975;DHT22;5028;50.974;4.968;2022-10-18T09:54:15;16.40;99.90
9975;DHT22;5028;50.974;4.968;2022-10-18T09:56:48;16.40;99.90
9975;DHT22;5028;50.974;4.968;2022-10-18T09:59:31;16.50;99.90
9975;DHT22;5028;50.974;4.968;2022-10-18T10:02:03;16.70;99.90
9975;DHT22;5028;50.974;4.968;2022-10-18T10:04:38;16.70;99.90
9975;DHT22;5028;50.974;4.968;2022-10-18T10:07:10;16.60;99.90
9975;DHT22;5028;50.974;4.968;2022-10-18T10:09:47;16.50;99.90
9975;DHT22;5028;50.974;4.968;2022-10-18T10:12:28;16.50;99.90
9975;DHT22;5028;50.974;4.968;2022-10-18T10:15:17;16.70;99.90
9975;DHT22;5028;50.974;4.968;2022-10-18T10:18:04;16.90;99.90
9975;DHT22;5028;50.974;4.968;2022-10-18T10:20:43;17.10;99.90
9975;DHT22;5028;50.974;4.968;2022-10-18T10:23:15;17.20;99.90
9975;DHT22;5028;50.974;4.968;2022-10-18T10:25:54;17.40;99.90
9975;DHT22;5028;50.974;4.968;2022-10-18T10:28:26;17.50;99.90
9975;DHT22;5028;50.974;4.968;2022-10-18T10:31:17;17.70;99.90
9975;DHT22;5028;50.974;4.968;2022-10-18T10:33:57;17.90;99.90
9975;DHT22;5028;50.974;4.968;2022-10-18T10:36:32;18.10;99.90
9975;DHT22;5028;50.974;4.968;2022-10-18T10:39:03;18.30;99.90
9975;DHT22;5028;50.974;4.968;2022-10-18T10:41:39;18.60;99.90
9975;DHT22;5028;50.974;4.968;2022-10-18T10:44:15;18.80;99.90
9975;DHT22;5028;50.974;4.968;2022-10-18T10:46:50;18.90;99.90
9975;DHT22;5028;50.974;4.968;2022-10-18T10:49:42;19.10;99.90
9975;DHT22;5028;50.974;4.968;2022-10-18T10:52:23;18.90;99.90
9975;DHT22;5028;50.974;4.968;2022-10-18T10:54:55;19.00;99.90
9975;DHT22;5028;50.974;4.968;2022-10-18T10:57:50;19.10;99.90
9975;DHT22;5028;50.974;4.968;2022-10-18T11:00:35;19.20;99.90
9975;DHT22;5028;50.974;4.968;2022-10-18T11:03:14;19.60;99.90
9975;DHT22;5028;50.974;4.968;2022-10-18T11:06:01;19.60;99.90
9975;DHT22;5028;50.974;4.968;2022-10-18T11:08:38;19.50;99.90
9975;DHT22;5028;50.974;4.968;2022-10-18T11:11:16;19.40;99.90
9975;DHT22;5028;50.974;4.968;2022-10-18T11:13:58;19.50;99.90
9975;DHT22;5028;50.974;4.968;2022-10-18T11:16:55;19.50;99.90
9975;DHT22;5028;50.974;4.968;2022-10-18T11:19:38;19.50;99.90
9975;DHT22;5028;50.974;4.968;2022-10-18T11:22:16;19.60;99.90
9975;DHT22;5028;50.974;4.968;2022-10-18T11:24:52;19.70;99.90
9975;DHT22;5028;50.974;4.968;2022-10-18T11:27:25;19.90;99.90
9975;DHT22;5028;50.974;4.968;2022-10-18T11:30:21;19.90;99.90
9975;DHT22;5028;50.974;4.968;2022-10-18T11:32:58;20.10;99.90
9975;DHT22;5028;50.974;4.968;2022-10-18T11:35:42;20.30;99.90
9975;DHT22;5028;50.974;4.968;2022-10-18T11:38:22;20.30;99.90
9975;DHT22;5028;50.974;4.968;2022-10-18T11:41:16;20.60;99.90
9975;DHT22;5028;50.974;4.968;2022-10-18T11:43:53;20.90;99.90
9975;DHT22;5028;50.974;4.968;2022-10-18T11:46:40;20.80;99.90
9975;DHT22;5028;50.974;4.968;2022-10-18T11:49:34;21.10;99.90
9975;DHT22;5028;50.974;4.968;2022-10-18T11:52:14;21.30;99.90
9975;DHT22;5028;50.974;4.968;2022-10-18T11:55:11;21.40;99.90
9975;DHT22;5028;50.974;4.968;2022-10-18T11:58:02;21.40;99.90
9975;DHT22;5028;50.974;4.968;2022-10-18T12:00:43;21.40;99.90
9975;DHT22;5028;50.974;4.968;2022-10-18T12:03:30;21.50;99.90
9975;DHT22;5028;50.974;4.968;2022-10-18T12:06:03;21.60;99.90
9975;DHT22;5028;50.974;4.968;2022-10-18T12:08:43;21.70;99.90
9975;DHT22;5028;50.974;4.968;2022-10-18T12:11:18;21.70;99.90
9975;DHT22;5028;50.974;4.968;2022-10-18T12:13:56;21.80;99.90
9975;DHT22;5028;50.974;4.968;2022-10-18T12:16:28;21.80;99.90
9975;DHT22;5028;50.974;4.968;2022-10-18T12:19:19;21.70;99.90
9975;DHT22;5028;50.974;4.968;2022-10-18T12:21:54;21.40;99.90
9975;DHT22;5028;50.974;4.968;2022-10-18T12:24:32;21.50;99.90
9975;DHT22;5028;50.974;4.968;2022-10-18T12:27:03;21.60;99.90
9975;DHT22;5028;50.974;4.968;2022-10-18T12:29:43;21.80;99.90
9975;DHT22;5028;50.974;4.968;2022-10-18T12:32:19;21.80;99.90
9975;DHT22;5028;50.974;4.968;2022-10-18T12:34:58;21.80;99.90
9975;DHT22;5028;50.974;4.968;2022-10-18T12:37:55;21.60;99.90
9975;DHT22;5028;50.974;4.968;2022-10-18T12:40:40;21.10;99.90
9975;DHT22;5028;50.974;4.968;2022-10-18T12:43:17;20.80;99.90
9975;DHT22;5028;50.974;4.968;2022-10-18T12:45:57;20.40;99.90
9975;DHT22;5028;50.974;4.968;2022-10-18T12:49:02;20.40;99.90
9975;DHT22;5028;50.974;4.968;2022-10-18T12:51:48;20.60;99.90
9975;DHT22;5028;50.974;4.968;2022-10-18T12:54:26;20.80;99.90
9975;DHT22;5028;50.974;4.968;2022-10-18T12:56:56;20.70;99.90
9975;DHT22;5028;50.974;4.968;2022-10-18T12:59:59;21.00;99.90
9975;DHT22;5028;50.974;4.968;2022-10-18T13:02:31;21.50;99.90
9975;DHT22;5028;50.974;4.968;2022-10-18T13:08:38;21.70;99.90
9975;DHT22;5028;50.974;4.968;2022-10-18T13:11:33;21.90;99.90
9975;DHT22;5028;50.974;4.968;2022-10-18T13:14:25;21.80;99.90
9975;DHT22;5028;50.974;4.968;2022-10-18T13:17:23;22.10;99.90
9975;DHT22;5028;50.974;4.968;2022-10-18T13:20:02;21.90;99.90
9975;DHT22;5028;50.974;4.968;2022-10-18T13:23:13;21.50;99.90
9975;DHT22;5028;50.974;4.968;2022-10-18T13:25:56;21.10;99.90
9975;DHT22;5028;50.974;4.968;2022-10-18T13:28:38;20.90;99.90
9975;DHT22;5028;50.974;4.968;2022-10-18T13:31:18;20.70;99.90
9975;DHT22;5028;50.974;4.968;2022-10-18T13:34:15;20.80;99.90
9975;DHT22;5028;50.974;4.968;2022-10-18T13:36:58;20.60;99.90
9975;DHT22;5028;50.974;4.968;2022-10-18T13:39:33;20.50;99.90
9975;DHT22;5028;50.974;4.968;2022-10-18T13:42:27;20.30;99.90
9975;DHT22;5028;50.974;4.968;2022-10-18T13:48:44;20.40;99.90
9975;DHT22;5028;50.974;4.968;2022-10-18T13:51:39;20.50;99.90
9975;DHT22;5028;50.974;4.968;2022-10-18T13:54:26;20.30;99.90
9975;DHT22;5028;50.974;4.968;2022-10-18T13:57:12;20.10;99.90
9975;DHT22;5028;50.974;4.968;2022-10-18T13:59:58;20.10;99.90
9975;DHT22;5028;50.974;4.968;2022-10-18T14:02:45;20.00;99.90
9975;DHT22;5028;50.974;4.968;2022-10-18T14:05:44;19.90;99.90
9975;DHT22;5028;50.974;4.968;2022-10-18T14:08:28;19.80;99.90
9975;DHT22;5028;50.974;4.968;2022-10-18T14:11:03;19.70;99.90
9975;DHT22;5028;50.974;4.968;2022-10-18T14:13:44;19.70;99.90
9975;DHT22;5028;50.974;4.968;2022-10-18T14:16:28;19.60;99.90
9975;DHT22;5028;50.974;4.968;2022-10-18T14:19:13;19.50;99.90
9975;DHT22;5028;50.974;4.968;2022-10-18T14:21:50;19.60;99.90
9975;DHT22;5028;50.974;4.968;2022-10-18T14:24:28;19.60;99.90
9975;DHT22;5028;50.974;4.968;2022-10-18T14:27:12;19.60;99.90
9975;DHT22;5028;50.974;4.968;2022-10-18T14:30:05;19.60;99.90
9975;DHT22;5028;50.974;4.968;2022-10-18T14:32:36;19.50;99.90
9975;DHT22;5028;50.974;4.968;2022-10-18T14:35:18;19.50;99.90
9975;DHT22;5028;50.974;4.968;2022-10-18T14:38:11;19.40;99.90
9975;DHT22;5028;50.974;4.968;2022-10-18T14:40:49;19.30;99.90
9975;DHT22;5028;50.974;4.968;2022-10-18T14:43:18;19.40;99.90
9975;DHT22;5028;50.974;4.968;2022-10-18T14:45:53;19.40;99.90
9975;DHT22;5028;50.974;4.968;2022-10-18T14:48:35;19.40;99.90
9975;DHT22;5028;50.974;4.968;2022-10-18T14:51:10;19.40;99.90
9975;DHT22;5028;50.974;4.968;2022-10-18T14:53:40;19.40;99.90
9975;DHT22;5028;50.974;4.968;2022-10-18T14:56:22;19.40;99.90
9975;DHT22;5028;50.974;4.968;2022-10-18T14:58:52;19.20;99.90
9975;DHT22;5028;50.974;4.968;2022-10-18T15:01:30;19.10;99.90
9975;DHT22;5028;50.974;4.968;2022-10-18T15:04:03;19.10;99.90
9975;DHT22;5028;50.974;4.968;2022-10-18T15:06:42;19.10;99.90
9975;DHT22;5028;50.974;4.968;2022-10-18T15:09:11;19.10;99.90
9975;DHT22;5028;50.974;4.968;2022-10-18T15:11:50;19.00;99.90
9975;DHT22;5028;50.974;4.968;2022-10-18T15:14:21;19.00;99.90
9975;DHT22;5028;50.974;4.968;2022-10-18T15:17:00;19.00;99.90
9975;DHT22;5028;50.974;4.968;2022-10-18T15:19:32;18.90;99.90
9975;DHT22;5028;50.974;4.968;2022-10-18T15:22:08;18.90;99.90
9975;DHT22;5028;50.974;4.968;2022-10-18T15:25:12;18.90;99.90
9975;DHT22;5028;50.974;4.968;2022-10-18T15:27:51;18.80;99.90
9975;DHT22;5028;50.974;4.968;2022-10-18T15:30:28;18.80;99.90
9975;DHT22;5028;50.974;4.968;2022-10-18T15:33:05;18.70;99.90
9975;DHT22;5028;50.974;4.968;2022-10-18T15:35:50;18.60;99.90
9975;DHT22;5028;50.974;4.968;2022-10-18T15:38:25;18.50;99.90
9975;DHT22;5028;50.974;4.968;2022-10-18T15:41:00;18.50;99.90
9975;DHT22;5028;50.974;4.968;2022-10-18T15:43:34;18.40;99.90
9975;DHT22;5028;50.974;4.968;2022-10-18T15:46:29;18.40;99.90
9975;DHT22;5028;50.974;4.968;2022-10-18T15:49:49;18.40;99.90
9975;DHT22;5028;50.974;4.968;2022-10-18T15:52:35;18.30;99.90
9975;DHT22;5028;50.974;4.968;2022-10-18T15:58:43;18.30;99.90
9975;DHT22;5028;50.974;4.968;2022-10-18T16:01:15;18.20;99.90
9975;DHT22;5028;50.974;4.968;2022-10-18T16:03:52;18.20;99.90
9975;DHT22;5028;50.974;4.968;2022-10-18T16:06:21;18.10;99.90
9975;DHT22;5028;50.974;4.968;2022-10-18T16:08:57;18.10;99.90
9975;DHT22;5028;50.974;4.968;2022-10-18T16:11:26;18.00;99.90
9975;DHT22;5028;50.974;4.968;2022-10-18T16:14:04;18.00;99.90
9975;DHT22;5028;50.974;4.968;2022-10-18T16:16:39;17.90;99.90
9975;DHT22;5028;50.974;4.968;2022-10-18T16:19:09;17.80;99.90
9975;DHT22;5028;50.974;4.968;2022-10-18T16:21:48;17.80;99.90
9975;DHT22;5028;50.974;4.968;2022-10-18T16:24:16;17.80;99.90
9975;DHT22;5028;50.974;4.968;2022-10-18T16:26:51;17.70;99.90
9975;DHT22;5028;50.974;4.968;2022-10-18T16:29:22;17.60;99.90
9975;DHT22;5028;50.974;4.968;2022-10-18T16:31:59;17.50;99.90
9975;DHT22;5028;50.974;4.968;2022-10-18T16:34:28;17.50;99.90
9975;DHT22;5028;50.974;4.968;2022-10-18T16:37:04;17.40;99.90
9975;DHT22;5028;50.974;4.968;2022-10-18T16:39:33;17.40;99.90
9975;DHT22;5028;50.974;4.968;2022-10-18T16:42:08;17.30;99.90
9975;DHT22;5028;50.974;4.968;2022-10-18T16:44:38;17.20;99.90
9975;DHT22;5028;50.974;4.968;2022-10-18T16:47:20;17.20;99.90
9975;DHT22;5028;50.974;4.968;2022-10-18T16:50:01;17.10;99.90
9975;DHT22;5028;50.974;4.968;2022-10-18T16:52:40;17.10;99.90
9975;DHT22;5028;50.974;4.968;2022-10-18T16:55:11;17.00;99.90
9975;DHT22;5028;50.974;4.968;2022-10-18T16:57:53;17.00;99.90
9975;DHT22;5028;50.974;4.968;2022-10-18T17:00:23;16.90;99.90
9975;DHT22;5028;50.974;4.968;2022-10-18T17:02:58;16.90;99.90
9975;DHT22;5028;50.974;4.968;2022-10-18T17:05:27;16.80;99.90
9975;DHT22;5028;50.974;4.968;2022-10-18T17:08:04;16.70;99.90
9975;DHT22;5028;50.974;4.968;2022-10-18T17:10:33;16.60;99.90
9975;DHT22;5028;50.974;4.968;2022-10-18T17:13:08;16.60;99.90
9975;DHT22;5028;50.974;4.968;2022-10-18T17:15:39;16.50;99.90
9975;DHT22;5028;50.974;4.968;2022-10-18T17:18:16;16.50;99.90
9975;DHT22;5028;50.974;4.968;2022-10-18T17:20:46;16.40;99.90